sensor_id;sensor_type;location;lat;lon;timestamp;P1;durP1;ratioP1;P2;durP2;ratioP2
31818;SDS011;18384;48.860;9.188;2023-12-14T00:01:42;3.83;;;1.87;;
31818;SDS011;18384;48.860;9.188;2023-12-14T00:04:11;6.97;;;2.10;;
31818;SDS011;18384;48.860;9.188;2023-12-14T00:06:37;5.28;;;2.15;;
31818;SDS011;18384;48.860;9.188;2023-12-14T00:09:03;4.50;;;1.85;;
31818;SDS011;18384;48.860;9.188;2023-12-14T00:11:29;6.82;;;1.60;;
31818;SDS011;18384;48.860;9.188;2023-12-14T00:13:55;5.28;;;1.80;;
31818;SDS011;18384;48.860;9.188;2023-12-14T00:16:22;3.25;;;1.55;;
31818;SDS011;18384;48.860;9.188;2023-12-14T00:18:48;3.20;;;1.65;;
31818;SDS011;18384;48.860;9.188;2023-12-14T00:21:14;4.25;;;2.03;;
31818;SDS011;18384;48.860;9.188;2023-12-14T00:23:40;3.70;;;1.52;;
31818;SDS011;18384;48.860;9.188;2023-12-14T00:26:06;3.67;;;1.92;;
31818;SDS011;18384;48.860;9.188;2023-12-14T00:28:32;6.25;;;1.92;;
31818;SDS011;18384;48.860;9.188;2023-12-14T00:30:58;4.68;;;1.87;;
31818;SDS011;18384;48.860;9.188;2023-12-14T00:33:24;2.45;;;1.55;;
31818;SDS011;18384;48.860;9.188;2023-12-14T00:35:50;4.55;;;1.70;;
31818;SDS011;18384;48.860;9.188;2023-12-14T00:38:17;5.40;;;1.67;;
31818;SDS011;18384;48.860;9.188;2023-12-14T00:40:43;4.37;;;1.70;;
31818;SDS011;18384;48.860;9.188;2023-12-14T00:43:09;2.80;;;1.83;;
31818;SDS011;18384;48.860;9.188;2023-12-14T00:45:35;4.80;;;2.20;;
31818;SDS011;18384;48.860;9.188;2023-12-14T00:48:01;5.95;;;2.15;;
31818;SDS011;18384;48.860;9.188;2023-12-14T00:50:27;4.25;;;2.03;;
31818;SDS011;18384;48.860;9.188;2023-12-14T00:55:20;4.97;;;2.80;;
31818;SDS011;18384;48.860;9.188;2023-12-14T00:57:46;7.62;;;2.85;;
31818;SDS011;18384;48.860;9.188;2023-12-14T01:00:12;7.18;;;3.05;;
31818;SDS011;18384;48.860;9.188;2023-12-14T01:02:39;4.32;;;2.67;;
31818;SDS011;18384;48.860;9.188;2023-12-14T01:05:05;2.70;;;1.62;;
31818;SDS011;18384;48.860;9.188;2023-12-14T01:09:57;3.83;;;2.00;;
31818;SDS011;18384;48.860;9.188;2023-12-14T01:12:23;3.65;;;1.95;;
31818;SDS011;18384;48.860;9.188;2023-12-14T01:14:49;3.12;;;1.80;;
31818;SDS011;18384;48.860;9.188;2023-12-14T01:17:15;8.45;;;2.30;;
31818;SDS011;18384;48.860;9.188;2023-12-14T01:19:42;4.90;;;2.00;;
31818;SDS011;18384;48.860;9.188;2023-12-14T01:22:08;4.32;;;1.92;;
31818;SDS011;18384;48.860;9.188;2023-12-14T01:24:34;3.60;;;1.70;;
31818;SDS011;18384;48.860;9.188;2023-12-14T01:27:00;4.65;;;1.65;;
31818;SDS011;18384;48.860;9.188;2023-12-14T01:29:26;4.37;;;1.83;;
31818;SDS011;18384;48.860;9.188;2023-12-14T01:31:52;4.78;;;1.65;;
31818;SDS011;18384;48.860;9.188;2023-12-14T01:34:18;7.50;;;2.10;;
31818;SDS011;18384;48.860;9.188;2023-12-14T01:36:44;3.15;;;1.70;;
31818;SDS011;18384;48.860;9.188;2023-12-14T01:39:10;7.57;;;1.90;;
31818;SDS011;18384;48.860;9.188;2023-12-14T01:41:37;5.50;;;1.70;;
31818;SDS011;18384;48.860;9.188;2023-12-14T01:44:03;2.80;;;1.62;;
31818;SDS011;18384;48.860;9.188;2023-12-14T01:46:29;8.18;;;1.92;;
31818;SDS011;18384;48.860;9.188;2023-12-14T01:48:55;4.65;;;1.85;;
31818;SDS011;18384;48.860;9.188;2023-12-14T01:51:21;4.00;;;2.12;;
31818;SDS011;18384;48.860;9.188;2023-12-14T01:53:47;4.53;;;1.80;;
31818;SDS011;18384;48.860;9.188;2023-12-14T01:56:13;3.70;;;1.80;;
31818;SDS011;18384;48.860;9.188;2023-12-14T01:58:40;6.37;;;1.95;;
31818;SDS011;18384;48.860;9.188;2023-12-14T02:01:20;5.25;;;1.95;;
31818;SDS011;18384;48.860;9.188;2023-12-14T02:04:08;2.60;;;1.35;;
31818;SDS011;18384;48.860;9.188;2023-12-14T02:06:35;2.70;;;1.58;;
31818;SDS011;18384;48.860;9.188;2023-12-14T02:09:02;4.40;;;1.83;;
31818;SDS011;18384;48.860;9.188;2023-12-14T02:13:54;3.80;;;1.60;;
31818;SDS011;18384;48.860;9.188;2023-12-14T02:16:20;4.60;;;1.58;;
31818;SDS011;18384;48.860;9.188;2023-12-14T02:18:46;7.45;;;1.23;;
31818;SDS011;18384;48.860;9.188;2023-12-14T02:21:12;3.67;;;1.70;;
31818;SDS011;18384;48.860;9.188;2023-12-14T02:23:43;1.73;;;1.20;;
31818;SDS011;18384;48.860;9.188;2023-12-14T02:26:11;4.75;;;1.48;;
31818;SDS011;18384;48.860;9.188;2023-12-14T02:28:38;6.10;;;1.67;;
31818;SDS011;18384;48.860;9.188;2023-12-14T02:31:04;4.72;;;1.60;;
31818;SDS011;18384;48.860;9.188;2023-12-14T02:33:30;5.57;;;1.60;;
31818;SDS011;18384;48.860;9.188;2023-12-14T02:35:56;3.80;;;1.45;;
31818;SDS011;18384;48.860;9.188;2023-12-14T02:38:23;3.15;;;1.40;;
31818;SDS011;18384;48.860;9.188;2023-12-14T02:40:49;9.07;;;4.53;;
31818;SDS011;18384;48.860;9.188;2023-12-14T02:43:16;6.57;;;1.20;;
31818;SDS011;18384;48.860;9.188;2023-12-14T02:45:42;2.70;;;1.50;;
31818;SDS011;18384;48.860;9.188;2023-12-14T02:48:08;2.00;;;1.35;;
31818;SDS011;18384;48.860;9.188;2023-12-14T02:50:34;3.95;;;1.42;;
31818;SDS011;18384;48.860;9.188;2023-12-14T02:53:00;3.37;;;1.52;;
31818;SDS011;18384;48.860;9.188;2023-12-14T02:55:26;2.42;;;1.20;;
31818;SDS011;18384;48.860;9.188;2023-12-14T02:57:53;5.62;;;2.28;;
31818;SDS011;18384;48.860;9.188;2023-12-14T03:00:19;4.65;;;1.40;;
31818;SDS011;18384;48.860;9.188;2023-12-14T03:05:11;6.18;;;1.40;;
31818;SDS011;18384;48.860;9.188;2023-12-14T03:07:38;2.62;;;1.42;;
31818;SDS011;18384;48.860;9.188;2023-12-14T03:10:04;2.60;;;1.30;;
31818;SDS011;18384;48.860;9.188;2023-12-14T03:12:31;5.28;;;1.85;;
31818;SDS011;18384;48.860;9.188;2023-12-14T03:14:57;3.12;;;1.40;;
31818;SDS011;18384;48.860;9.188;2023-12-14T03:17:23;4.45;;;1.50;;
31818;SDS011;18384;48.860;9.188;2023-12-14T03:19:49;2.55;;;1.62;;
31818;SDS011;18384;48.860;9.188;2023-12-14T03:22:16;2.22;;;1.40;;
31818;SDS011;18384;48.860;9.188;2023-12-14T03:24:42;2.47;;;1.10;;
31818;SDS011;18384;48.860;9.188;2023-12-14T03:27:08;4.62;;;1.42;;
31818;SDS011;18384;48.860;9.188;2023-12-14T03:29:34;2.87;;;1.55;;
31818;SDS011;18384;48.860;9.188;2023-12-14T03:32:01;2.70;;;1.33;;
31818;SDS011;18384;48.860;9.188;2023-12-14T03:34:27;3.03;;;1.60;;
31818;SDS011;18384;48.860;9.188;2023-12-14T03:36:53;2.20;;;1.27;;
31818;SDS011;18384;48.860;9.188;2023-12-14T03:39:19;3.67;;;1.40;;
31818;SDS011;18384;48.860;9.188;2023-12-14T03:41:45;3.25;;;1.42;;
31818;SDS011;18384;48.860;9.188;2023-12-14T03:44:11;2.50;;;1.30;;
31818;SDS011;18384;48.860;9.188;2023-12-14T03:46:37;2.53;;;1.55;;
31818;SDS011;18384;48.860;9.188;2023-12-14T03:49:03;5.40;;;1.52;;
31818;SDS011;18384;48.860;9.188;2023-12-14T03:51:30;4.03;;;1.35;;
31818;SDS011;18384;48.860;9.188;2023-12-14T03:53:56;2.65;;;1.40;;
31818;SDS011;18384;48.860;9.188;2023-12-14T03:56:22;5.03;;;1.75;;
31818;SDS011;18384;48.860;9.188;2023-12-14T03:58:49;3.25;;;1.50;;
31818;SDS011;18384;48.860;9.188;2023-12-14T04:01:18;4.55;;;1.37;;
31818;SDS011;18384;48.860;9.188;2023-12-14T04:03:46;3.53;;;1.62;;
31818;SDS011;18384;48.860;9.188;2023-12-14T04:06:13;1.70;;;1.20;;
31818;SDS011;18384;48.860;9.188;2023-12-14T04:08:40;2.75;;;1.73;;
31818;SDS011;18384;48.860;9.188;2023-12-14T04:11:07;2.37;;;1.60;;
31818;SDS011;18384;48.860;9.188;2023-12-14T04:13:34;2.75;;;1.65;;
31818;SDS011;18384;48.860;9.188;2023-12-14T04:18:26;4.28;;;1.50;;
31818;SDS011;18384;48.860;9.188;2023-12-14T04:20:53;3.08;;;1.50;;
31818;SDS011;18384;48.860;9.188;2023-12-14T04:23:19;3.40;;;1.55;;
31818;SDS011;18384;48.860;9.188;2023-12-14T04:25:45;3.35;;;1.75;;
31818;SDS011;18384;48.860;9.188;2023-12-14T04:28:11;5.22;;;1.75;;
31818;SDS011;18384;48.860;9.188;2023-12-14T04:30:37;4.95;;;2.08;;
31818;SDS011;18384;48.860;9.188;2023-12-14T04:33:03;4.03;;;1.80;;
31818;SDS011;18384;48.860;9.188;2023-12-14T04:35:30;2.67;;;1.52;;
31818;SDS011;18384;48.860;9.188;2023-12-14T04:38:01;3.60;;;1.80;;
31818;SDS011;18384;48.860;9.188;2023-12-14T04:42:53;2.92;;;1.55;;
31818;SDS011;18384;48.860;9.188;2023-12-14T04:45:19;4.43;;;1.62;;
31818;SDS011;18384;48.860;9.188;2023-12-14T04:47:45;6.07;;;1.83;;
31818;SDS011;18384;48.860;9.188;2023-12-14T04:50:12;2.40;;;1.77;;
31818;SDS011;18384;48.860;9.188;2023-12-14T04:52:38;4.07;;;1.95;;
31818;SDS011;18384;48.860;9.188;2023-12-14T04:55:06;3.78;;;1.70;;
31818;SDS011;18384;48.860;9.188;2023-12-14T04:57:33;4.10;;;1.90;;
31818;SDS011;18384;48.860;9.188;2023-12-14T05:00:00;3.45;;;1.98;;
31818;SDS011;18384;48.860;9.188;2023-12-14T05:02:26;5.78;;;2.42;;
31818;SDS011;18384;48.860;9.188;2023-12-14T05:04:52;3.30;;;1.90;;
31818;SDS011;18384;48.860;9.188;2023-12-14T05:07:18;3.65;;;1.85;;
31818;SDS011;18384;48.860;9.188;2023-12-14T05:12:11;2.47;;;1.52;;
31818;SDS011;18384;48.860;9.188;2023-12-14T05:14:37;4.00;;;1.83;;
31818;SDS011;18384;48.860;9.188;2023-12-14T05:17:03;4.70;;;1.92;;
31818;SDS011;18384;48.860;9.188;2023-12-14T05:19:29;3.00;;;1.75;;
31818;SDS011;18384;48.860;9.188;2023-12-14T05:21:59;3.22;;;1.75;;
31818;SDS011;18384;48.860;9.188;2023-12-14T05:24:25;2.40;;;1.52;;
31818;SDS011;18384;48.860;9.188;2023-12-14T05:26:51;6.97;;;1.90;;
31818;SDS011;18384;48.860;9.188;2023-12-14T05:29:17;3.65;;;1.90;;
31818;SDS011;18384;48.860;9.188;2023-12-14T05:31:46;4.57;;;1.70;;
31818;SDS011;18384;48.860;9.188;2023-12-14T05:34:13;3.45;;;2.00;;
31818;SDS011;18384;48.860;9.188;2023-12-14T05:36:39;5.80;;;2.10;;
31818;SDS011;18384;48.860;9.188;2023-12-14T05:39:05;2.72;;;1.92;;
31818;SDS011;18384;48.860;9.188;2023-12-14T05:41:31;3.72;;;2.40;;
31818;SDS011;18384;48.860;9.188;2023-12-14T05:43:57;5.80;;;2.33;;
31818;SDS011;18384;48.860;9.188;2023-12-14T05:48:50;6.07;;;2.20;;
31818;SDS011;18384;48.860;9.188;2023-12-14T05:54:43;4.35;;;2.50;;
31818;SDS011;18384;48.860;9.188;2023-12-14T05:57:09;6.90;;;2.65;;
31818;SDS011;18384;48.860;9.188;2023-12-14T05:59:38;5.12;;;2.75;;
31818;SDS011;18384;48.860;9.188;2023-12-14T06:02:04;6.12;;;2.72;;
31818;SDS011;18384;48.860;9.188;2023-12-14T06:04:32;4.32;;;2.80;;
31818;SDS011;18384;48.860;9.188;2023-12-14T06:06:58;6.30;;;2.65;;
31818;SDS011;18384;48.860;9.188;2023-12-14T06:09:24;3.70;;;2.62;;
31818;SDS011;18384;48.860;9.188;2023-12-14T06:12:03;8.85;;;3.20;;
31818;SDS011;18384;48.860;9.188;2023-12-14T06:14:30;7.87;;;3.20;;
31818;SDS011;18384;48.860;9.188;2023-12-14T06:16:57;5.20;;;3.47;;
31818;SDS011;18384;48.860;9.188;2023-12-14T06:19:24;5.12;;;3.25;;
31818;SDS011;18384;48.860;9.188;2023-12-14T06:21:50;8.60;;;3.17;;
31818;SDS011;18384;48.860;9.188;2023-12-14T06:24:16;11.15;;;3.47;;
31818;SDS011;18384;48.860;9.188;2023-12-14T06:26:42;9.50;;;3.42;;
31818;SDS011;18384;48.860;9.188;2023-12-14T06:29:10;4.87;;;3.25;;
31818;SDS011;18384;48.860;9.188;2023-12-14T06:31:40;7.25;;;3.30;;
31818;SDS011;18384;48.860;9.188;2023-12-14T06:34:06;7.03;;;3.65;;
31818;SDS011;18384;48.860;9.188;2023-12-14T06:38:59;5.35;;;3.17;;
31818;SDS011;18384;48.860;9.188;2023-12-14T06:41:27;10.48;;;3.30;;
31818;SDS011;18384;48.860;9.188;2023-12-14T06:43:53;4.82;;;3.30;;
31818;SDS011;18384;48.860;9.188;2023-12-14T06:46:20;4.28;;;3.20;;
31818;SDS011;18384;48.860;9.188;2023-12-14T06:48:47;5.05;;;3.92;;
31818;SDS011;18384;48.860;9.188;2023-12-14T06:51:14;7.47;;;3.58;;
31818;SDS011;18384;48.860;9.188;2023-12-14T06:53:40;5.35;;;3.78;;
31818;SDS011;18384;48.860;9.188;2023-12-14T06:56:08;13.05;;;4.40;;
31818;SDS011;18384;48.860;9.188;2023-12-14T06:58:42;8.82;;;4.78;;
31818;SDS011;18384;48.860;9.188;2023-12-14T07:01:15;7.80;;;4.30;;
31818;SDS011;18384;48.860;9.188;2023-12-14T07:03:45;8.48;;;4.40;;
31818;SDS011;18384;48.860;9.188;2023-12-14T07:06:11;7.72;;;4.90;;
31818;SDS011;18384;48.860;9.188;2023-12-14T07:08:42;6.75;;;5.25;;
31818;SDS011;18384;48.860;9.188;2023-12-14T07:13:35;10.27;;;5.82;;
31818;SDS011;18384;48.860;9.188;2023-12-14T07:16:08;8.63;;;5.85;;
31818;SDS011;18384;48.860;9.188;2023-12-14T07:18:35;8.43;;;5.68;;
31818;SDS011;18384;48.860;9.188;2023-12-14T07:21:06;7.82;;;5.68;;
31818;SDS011;18384;48.860;9.188;2023-12-14T07:23:33;8.55;;;6.32;;
31818;SDS011;18384;48.860;9.188;2023-12-14T07:26:00;9.43;;;6.35;;
31818;SDS011;18384;48.860;9.188;2023-12-14T07:30:53;9.48;;;7.05;;
31818;SDS011;18384;48.860;9.188;2023-12-14T07:33:19;9.52;;;7.12;;
31818;SDS011;18384;48.860;9.188;2023-12-14T07:35:45;12.55;;;7.75;;
31818;SDS011;18384;48.860;9.188;2023-12-14T07:38:11;17.58;;;7.60;;
31818;SDS011;18384;48.860;9.188;2023-12-14T07:40:38;15.90;;;7.87;;
31818;SDS011;18384;48.860;9.188;2023-12-14T07:43:05;12.05;;;8.00;;
31818;SDS011;18384;48.860;9.188;2023-12-14T07:45:31;11.80;;;7.65;;
31818;SDS011;18384;48.860;9.188;2023-12-14T07:47:57;12.13;;;7.90;;
31818;SDS011;18384;48.860;9.188;2023-12-14T07:50:23;11.23;;;7.87;;
31818;SDS011;18384;48.860;9.188;2023-12-14T07:52:51;15.85;;;7.25;;
31818;SDS011;18384;48.860;9.188;2023-12-14T07:55:18;16.65;;;7.60;;
31818;SDS011;18384;48.860;9.188;2023-12-14T07:57:44;16.02;;;7.18;;
31818;SDS011;18384;48.860;9.188;2023-12-14T08:00:11;13.85;;;6.68;;
31818;SDS011;18384;48.860;9.188;2023-12-14T08:02:38;19.23;;;8.57;;
31818;SDS011;18384;48.860;9.188;2023-12-14T08:05:04;13.27;;;6.60;;
31818;SDS011;18384;48.860;9.188;2023-12-14T08:07:31;10.98;;;6.75;;
31818;SDS011;18384;48.860;9.188;2023-12-14T08:09:57;9.25;;;6.75;;
31818;SDS011;18384;48.860;9.188;2023-12-14T08:12:24;11.80;;;7.18;;
31818;SDS011;18384;48.860;9.188;2023-12-14T08:14:51;12.63;;;7.47;;
31818;SDS011;18384;48.860;9.188;2023-12-14T08:17:18;12.05;;;7.65;;
31818;SDS011;18384;48.860;9.188;2023-12-14T08:22:10;12.02;;;7.07;;
31818;SDS011;18384;48.860;9.188;2023-12-14T08:24:38;11.00;;;6.50;;
31818;SDS011;18384;48.860;9.188;2023-12-14T08:27:05;12.02;;;6.95;;
31818;SDS011;18384;48.860;9.188;2023-12-14T08:29:31;11.52;;;7.32;;
31818;SDS011;18384;48.860;9.188;2023-12-14T08:31:57;12.73;;;7.60;;
31818;SDS011;18384;48.860;9.188;2023-12-14T08:34:27;15.45;;;8.30;;
31818;SDS011;18384;48.860;9.188;2023-12-14T08:36:54;12.50;;;7.20;;
31818;SDS011;18384;48.860;9.188;2023-12-14T08:39:20;12.48;;;7.45;;
31818;SDS011;18384;48.860;9.188;2023-12-14T08:41:46;11.82;;;6.87;;
31818;SDS011;18384;48.860;9.188;2023-12-14T08:44:13;13.48;;;7.28;;
31818;SDS011;18384;48.860;9.188;2023-12-14T08:46:41;9.68;;;7.60;;
31818;SDS011;18384;48.860;9.188;2023-12-14T08:49:10;11.65;;;7.43;;
31818;SDS011;18384;48.860;9.188;2023-12-14T08:51:37;13.02;;;7.70;;
31818;SDS011;18384;48.860;9.188;2023-12-14T08:54:03;13.45;;;7.90;;
31818;SDS011;18384;48.860;9.188;2023-12-14T08:56:30;17.35;;;7.97;;
31818;SDS011;18384;48.860;9.188;2023-12-14T08:58:56;11.73;;;7.90;;
31818;SDS011;18384;48.860;9.188;2023-12-14T09:01:24;29.80;;;8.63;;
31818;SDS011;18384;48.860;9.188;2023-12-14T09:06:16;13.40;;;8.93;;
31818;SDS011;18384;48.860;9.188;2023-12-14T09:08:46;19.33;;;9.70;;
31818;SDS011;18384;48.860;9.188;2023-12-14T09:11:12;13.52;;;9.02;;
31818;SDS011;18384;48.860;9.188;2023-12-14T09:13:43;15.20;;;9.20;;
31818;SDS011;18384;48.860;9.188;2023-12-14T09:16:09;14.50;;;9.70;;
31818;SDS011;18384;48.860;9.188;2023-12-14T09:18:35;14.50;;;9.73;;
31818;SDS011;18384;48.860;9.188;2023-12-14T09:21:01;15.13;;;10.25;;
31818;SDS011;18384;48.860;9.188;2023-12-14T09:23:28;17.25;;;10.35;;
31818;SDS011;18384;48.860;9.188;2023-12-14T09:25:54;22.20;;;12.07;;
31818;SDS011;18384;48.860;9.188;2023-12-14T09:28:21;16.25;;;11.30;;
31818;SDS011;18384;48.860;9.188;2023-12-14T09:33:13;19.52;;;10.90;;
31818;SDS011;18384;48.860;9.188;2023-12-14T09:35:39;19.30;;;10.80;;
31818;SDS011;18384;48.860;9.188;2023-12-14T09:38:06;16.55;;;11.18;;
31818;SDS011;18384;48.860;9.188;2023-12-14T09:40:33;14.43;;;10.68;;
31818;SDS011;18384;48.860;9.188;2023-12-14T09:43:00;18.15;;;10.90;;
31818;SDS011;18384;48.860;9.188;2023-12-14T09:45:27;16.02;;;10.55;;
31818;SDS011;18384;48.860;9.188;2023-12-14T09:47:57;15.57;;;11.00;;
31818;SDS011;18384;48.860;9.188;2023-12-14T09:50:26;21.80;;;12.23;;
31818;SDS011;18384;48.860;9.188;2023-12-14T09:52:52;15.43;;;11.07;;
31818;SDS011;18384;48.860;9.188;2023-12-14T09:55:18;17.62;;;10.98;;
31818;SDS011;18384;48.860;9.188;2023-12-14T09:57:44;18.70;;;11.25;;
31818;SDS011;18384;48.860;9.188;2023-12-14T10:00:11;14.68;;;10.48;;
31818;SDS011;18384;48.860;9.188;2023-12-14T10:02:39;16.83;;;10.57;;
31818;SDS011;18384;48.860;9.188;2023-12-14T10:05:09;17.35;;;10.18;;
31818;SDS011;18384;48.860;9.188;2023-12-14T10:07:42;15.93;;;9.80;;
31818;SDS011;18384;48.860;9.188;2023-12-14T10:10:12;14.35;;;9.68;;
31818;SDS011;18384;48.860;9.188;2023-12-14T10:12:52;14.70;;;9.95;;
31818;SDS011;18384;48.860;9.188;2023-12-14T10:15:19;15.73;;;9.57;;
31818;SDS011;18384;48.860;9.188;2023-12-14T10:17:51;15.77;;;9.38;;
31818;SDS011;18384;48.860;9.188;2023-12-14T10:20:20;15.02;;;9.25;;
31818;SDS011;18384;48.860;9.188;2023-12-14T10:22:47;17.30;;;7.72;;
31818;SDS011;18384;48.860;9.188;2023-12-14T10:25:15;13.10;;;7.45;;
31818;SDS011;18384;48.860;9.188;2023-12-14T10:27:46;12.32;;;7.57;;
31818;SDS011;18384;48.860;9.188;2023-12-14T10:30:15;12.00;;;7.37;;
31818;SDS011;18384;48.860;9.188;2023-12-14T10:32:41;15.82;;;7.45;;
31818;SDS011;18384;48.860;9.188;2023-12-14T10:35:07;16.95;;;7.87;;
31818;SDS011;18384;48.860;9.188;2023-12-14T10:37:35;14.98;;;7.28;;
31818;SDS011;18384;48.860;9.188;2023-12-14T10:40:07;12.27;;;7.62;;
31818;SDS011;18384;48.860;9.188;2023-12-14T10:42:37;18.30;;;7.60;;
31818;SDS011;18384;48.860;9.188;2023-12-14T10:45:08;14.60;;;7.70;;
31818;SDS011;18384;48.860;9.188;2023-12-14T10:47:42;11.73;;;6.90;;
31818;SDS011;18384;48.860;9.188;2023-12-14T10:50:10;11.43;;;7.22;;
31818;SDS011;18384;48.860;9.188;2023-12-14T10:52:40;13.35;;;6.25;;
31818;SDS011;18384;48.860;9.188;2023-12-14T10:55:11;14.63;;;5.87;;
31818;SDS011;18384;48.860;9.188;2023-12-14T10:57:51;12.32;;;6.50;;
31818;SDS011;18384;48.860;9.188;2023-12-14T11:00:18;10.90;;;6.25;;
31818;SDS011;18384;48.860;9.188;2023-12-14T11:02:45;9.25;;;5.40;;
31818;SDS011;18384;48.860;9.188;2023-12-14T11:05:12;10.98;;;5.50;;
31818;SDS011;18384;48.860;9.188;2023-12-14T11:07:44;8.80;;;5.28;;
31818;SDS011;18384;48.860;9.188;2023-12-14T11:10:52;12.45;;;6.55;;
31818;SDS011;18384;48.860;9.188;2023-12-14T11:13:23;14.15;;;6.18;;
31818;SDS011;18384;48.860;9.188;2023-12-14T11:15:50;14.90;;;7.60;;
31818;SDS011;18384;48.860;9.188;2023-12-14T11:18:21;18.80;;;7.50;;
31818;SDS011;18384;48.860;9.188;2023-12-14T11:21:00;13.55;;;7.15;;
31818;SDS011;18384;48.860;9.188;2023-12-14T11:23:30;14.77;;;7.20;;
31818;SDS011;18384;48.860;9.188;2023-12-14T11:26:10;12.45;;;6.87;;
31818;SDS011;18384;48.860;9.188;2023-12-14T11:28:40;13.80;;;7.65;;
31818;SDS011;18384;48.860;9.188;2023-12-14T11:31:10;19.17;;;8.05;;
31818;SDS011;18384;48.860;9.188;2023-12-14T11:33:37;14.35;;;7.07;;
31818;SDS011;18384;48.860;9.188;2023-12-14T11:36:03;18.35;;;8.02;;
31818;SDS011;18384;48.860;9.188;2023-12-14T11:38:30;13.62;;;7.45;;
31818;SDS011;18384;48.860;9.188;2023-12-14T11:40:58;15.43;;;8.43;;
31818;SDS011;18384;48.860;9.188;2023-12-14T11:43:25;11.75;;;7.72;;
31818;SDS011;18384;48.860;9.188;2023-12-14T11:45:52;19.67;;;8.55;;
31818;SDS011;18384;48.860;9.188;2023-12-14T11:48:20;17.37;;;8.55;;
31818;SDS011;18384;48.860;9.188;2023-12-14T11:53:13;23.12;;;8.07;;
31818;SDS011;18384;48.860;9.188;2023-12-14T11:55:40;12.13;;;6.57;;
31818;SDS011;18384;48.860;9.188;2023-12-14T11:58:07;12.05;;;7.07;;
31818;SDS011;18384;48.860;9.188;2023-12-14T12:00:36;18.00;;;7.00;;
31818;SDS011;18384;48.860;9.188;2023-12-14T12:03:17;12.13;;;6.80;;
31818;SDS011;18384;48.860;9.188;2023-12-14T12:05:49;11.35;;;6.05;;
31818;SDS011;18384;48.860;9.188;2023-12-14T12:08:20;10.27;;;5.55;;
31818;SDS011;18384;48.860;9.188;2023-12-14T12:10:47;9.57;;;4.78;;
31818;SDS011;18384;48.860;9.188;2023-12-14T12:13:15;8.90;;;5.75;;
31818;SDS011;18384;48.860;9.188;2023-12-14T12:15:46;9.70;;;5.50;;
31818;SDS011;18384;48.860;9.188;2023-12-14T12:18:13;7.10;;;4.80;;
31818;SDS011;18384;48.860;9.188;2023-12-14T12:20:42;7.80;;;4.32;;
31818;SDS011;18384;48.860;9.188;2023-12-14T12:23:08;11.15;;;4.60;;
31818;SDS011;18384;48.860;9.188;2023-12-14T12:25:34;12.45;;;5.28;;
31818;SDS011;18384;48.860;9.188;2023-12-14T12:28:01;8.05;;;5.50;;
31818;SDS011;18384;48.860;9.188;2023-12-14T12:30:31;7.30;;;5.07;;
31818;SDS011;18384;48.860;9.188;2023-12-14T12:32:57;9.52;;;5.43;;
31818;SDS011;18384;48.860;9.188;2023-12-14T12:35:23;6.43;;;3.72;;
31818;SDS011;18384;48.860;9.188;2023-12-14T12:37:55;5.65;;;3.45;;
31818;SDS011;18384;48.860;9.188;2023-12-14T12:40:22;9.40;;;4.25;;
31818;SDS011;18384;48.860;9.188;2023-12-14T12:42:51;8.23;;;4.60;;
31818;SDS011;18384;48.860;9.188;2023-12-14T12:45:17;8.13;;;3.92;;
31818;SDS011;18384;48.860;9.188;2023-12-14T12:47:44;8.75;;;3.87;;
31818;SDS011;18384;48.860;9.188;2023-12-14T12:50:11;7.12;;;3.78;;
31818;SDS011;18384;48.860;9.188;2023-12-14T12:52:37;8.55;;;3.67;;
31818;SDS011;18384;48.860;9.188;2023-12-14T12:55:05;7.05;;;4.07;;
31818;SDS011;18384;48.860;9.188;2023-12-14T12:57:32;8.77;;;4.00;;
31818;SDS011;18384;48.860;9.188;2023-12-14T12:59:58;7.78;;;4.50;;
31818;SDS011;18384;48.860;9.188;2023-12-14T13:02:24;9.10;;;4.87;;
31818;SDS011;18384;48.860;9.188;2023-12-14T13:04:51;10.50;;;4.50;;
31818;SDS011;18384;48.860;9.188;2023-12-14T13:07:17;12.27;;;5.22;;
31818;SDS011;18384;48.860;9.188;2023-12-14T13:09:44;9.63;;;4.40;;
31818;SDS011;18384;48.860;9.188;2023-12-14T13:12:10;6.05;;;3.72;;
31818;SDS011;18384;48.860;9.188;2023-12-14T13:14:36;9.32;;;3.17;;
31818;SDS011;18384;48.860;9.188;2023-12-14T13:17:02;5.90;;;3.17;;
31818;SDS011;18384;48.860;9.188;2023-12-14T13:19:29;7.37;;;3.00;;
31818;SDS011;18384;48.860;9.188;2023-12-14T13:21:55;9.60;;;3.50;;
31818;SDS011;18384;48.860;9.188;2023-12-14T13:24:24;5.28;;;3.53;;
31818;SDS011;18384;48.860;9.188;2023-12-14T13:29:17;6.32;;;3.45;;
31818;SDS011;18384;48.860;9.188;2023-12-14T13:31:43;7.57;;;3.58;;
31818;SDS011;18384;48.860;9.188;2023-12-14T13:34:09;7.95;;;4.43;;
31818;SDS011;18384;48.860;9.188;2023-12-14T13:36:35;7.90;;;4.50;;
31818;SDS011;18384;48.860;9.188;2023-12-14T13:39:01;15.93;;;6.53;;
31818;SDS011;18384;48.860;9.188;2023-12-14T13:41:28;10.48;;;5.87;;
31818;SDS011;18384;48.860;9.188;2023-12-14T13:43:59;12.85;;;5.72;;
31818;SDS011;18384;48.860;9.188;2023-12-14T13:46:26;8.13;;;4.35;;
31818;SDS011;18384;48.860;9.188;2023-12-14T13:48:52;6.75;;;3.60;;
31818;SDS011;18384;48.860;9.188;2023-12-14T13:51:18;9.70;;;3.80;;
31818;SDS011;18384;48.860;9.188;2023-12-14T13:53:44;6.62;;;3.85;;
31818;SDS011;18384;48.860;9.188;2023-12-14T13:56:10;6.28;;;3.60;;
31818;SDS011;18384;48.860;9.188;2023-12-14T13:58:36;7.30;;;3.50;;
31818;SDS011;18384;48.860;9.188;2023-12-14T14:01:04;6.07;;;4.00;;
31818;SDS011;18384;48.860;9.188;2023-12-14T14:03:34;9.93;;;4.72;;
31818;SDS011;18384;48.860;9.188;2023-12-14T14:06:01;8.30;;;4.20;;
31818;SDS011;18384;48.860;9.188;2023-12-14T14:08:27;9.80;;;4.60;;
31818;SDS011;18384;48.860;9.188;2023-12-14T14:10:54;7.53;;;4.72;;
31818;SDS011;18384;48.860;9.188;2023-12-14T14:13:20;8.20;;;5.25;;
31818;SDS011;18384;48.860;9.188;2023-12-14T14:15:46;7.70;;;5.53;;
31818;SDS011;18384;48.860;9.188;2023-12-14T14:18:13;9.80;;;5.90;;
31818;SDS011;18384;48.860;9.188;2023-12-14T14:20:39;10.75;;;6.12;;
31818;SDS011;18384;48.860;9.188;2023-12-14T14:23:05;10.90;;;6.65;;
31818;SDS011;18384;48.860;9.188;2023-12-14T14:25:31;10.07;;;6.72;;
31818;SDS011;18384;48.860;9.188;2023-12-14T14:30:24;10.65;;;6.47;;
31818;SDS011;18384;48.860;9.188;2023-12-14T14:35:16;10.63;;;6.18;;
31818;SDS011;18384;48.860;9.188;2023-12-14T14:37:42;10.80;;;6.72;;
31818;SDS011;18384;48.860;9.188;2023-12-14T14:40:11;13.77;;;7.12;;
31818;SDS011;18384;48.860;9.188;2023-12-14T14:42:39;10.80;;;6.53;;
31818;SDS011;18384;48.860;9.188;2023-12-14T14:45:06;11.82;;;6.90;;
31818;SDS011;18384;48.860;9.188;2023-12-14T14:47:33;15.43;;;8.45;;
31818;SDS011;18384;48.860;9.188;2023-12-14T14:50:00;24.05;;;9.73;;
31818;SDS011;18384;48.860;9.188;2023-12-14T14:52:32;16.58;;;9.57;;
31818;SDS011;18384;48.860;9.188;2023-12-14T14:54:59;17.67;;;8.80;;
31818;SDS011;18384;48.860;9.188;2023-12-14T14:59:51;16.05;;;8.60;;
31818;SDS011;18384;48.860;9.188;2023-12-14T15:02:18;13.05;;;8.75;;
31818;SDS011;18384;48.860;9.188;2023-12-14T15:04:45;14.73;;;8.77;;
31818;SDS011;18384;48.860;9.188;2023-12-14T15:07:12;14.73;;;9.43;;
31818;SDS011;18384;48.860;9.188;2023-12-14T15:09:38;16.62;;;8.90;;
31818;SDS011;18384;48.860;9.188;2023-12-14T15:12:04;18.33;;;8.82;;
31818;SDS011;18384;48.860;9.188;2023-12-14T15:16:56;14.55;;;9.32;;
31818;SDS011;18384;48.860;9.188;2023-12-14T15:19:23;18.10;;;10.05;;
31818;SDS011;18384;48.860;9.188;2023-12-14T15:21:49;20.75;;;10.20;;
31818;SDS011;18384;48.860;9.188;2023-12-14T15:26:41;18.52;;;10.35;;
31818;SDS011;18384;48.860;9.188;2023-12-14T15:29:08;17.48;;;9.75;;
31818;SDS011;18384;48.860;9.188;2023-12-14T15:31:34;20.02;;;9.90;;
31818;SDS011;18384;48.860;9.188;2023-12-14T15:34:01;20.30;;;10.63;;
31818;SDS011;18384;48.860;9.188;2023-12-14T15:36:27;18.37;;;9.98;;